Time;durP1;ratioP1;P1;durP2;ratioP2;P2;SDS_P1;SDS_P2;PMS_P1;PMS_P2;Temp;Humidity;BMP_temperature;BMP_pressure;BME280_temperature;BME280_humidity;BME280_pressure;Samples;Min_cycle;Max_cycle;Signal;HPM_P1;HPM_P2
2022/12/31 00:01:09;;;;;;;130.23;59.85;;;;;;;2.14;84.26;100583.75;5113848;28;20019;-74
2022/12/31 00:03:35;;;;;;;113.30;59.63;;;;;;;2.12;83.81;100577.66;5115329;28;20023;-74
2022/12/31 00:06:01;;;;;;;122.05;56.97;;;;;;;2.04;84.77;100575.31;5115215;28;20028;-74
2022/12/31 00:08:26;;;;;;;119.38;55.85;;;;;;;2.18;84.38;100576.63;5111586;28;20027;-74
2022/12/31 00:10:52;;;;;;;110.35;54.83;;;;;;;2.10;83.99;100574.28;5114322;28;20513;-74
2022/12/31 00:13:17;;;;;;;98.55;52.85;;;;;;;2.03;84.53;100574.47;5115078;28;20020;-74
2022/12/31 00:15:43;;;;;;;101.90;54.35;;;;;;;2.20;84.58;100584.69;5113665;28;20051;-74
2022/12/31 00:18:09;;;;;;;100.68;55.85;;;;;;;1.52;87.33;100586.28;5111918;28;20073;-74
2022/12/31 00:20:40;;;;;;;98.72;52.97;;;;;;;1.35;88.00;100572.44;5113168;28;20023;-74
2022/12/31 00:23:07;;;;;;;108.43;53.47;;;;;;;1.48;87.93;100595.28;5114396;28;20436;-74
2022/12/31 00:25:34;;;;;;;117.78;55.25;;;;;;;1.12;89.18;100581.66;5115047;28;20027;-74
2022/12/31 00:28:00;;;;;;;113.43;57.35;;;;;;;1.22;89.09;100590.13;5114663;28;20111;-74
2022/12/31 00:30:26;;;;;;;111.38;56.10;;;;;;;1.03;89.08;100594.97;5114100;28;20029;-74
2022/12/31 00:32:52;;;;;;;114.80;57.22;;;;;;;1.35;89.14;100583.47;5114445;27;20027;-74
2022/12/31 00:35:17;;;;;;;110.68;55.03;;;;;;;1.03;87.79;100596.88;5115068;28;20026;-74
2022/12/31 00:37:43;;;;;;;119.90;55.83;;;;;;;0.75;89.51;100602.09;5112581;28;20028;-74
2022/12/31 00:40:09;;;;;;;103.03;53.15;;;;;;;1.08;90.17;100602.50;5114691;28;20051;-74
2022/12/31 00:42:34;;;;;;;109.68;56.25;;;;;;;0.84;91.20;100619.91;5114653;28;20023;-74
2022/12/31 00:45:00;;;;;;;117.47;58.13;;;;;;;1.20;90.56;100607.97;5114761;28;20015;-74
2022/12/31 00:47:25;;;;;;;126.18;60.47;;;;;;;0.52;92.75;100594.69;5114287;28;20050;-74
2022/12/31 00:49:51;;;;;;;121.03;59.33;;;;;;;1.01;93.88;100612.84;5114550;28;20031;-74
2022/12/31 00:52:17;;;;;;;122.60;60.78;;;;;;;0.64;94.55;100603.78;5108645;28;20049;-74
2022/12/31 00:54:42;;;;;;;112.80;61.20;;;;;;;1.10;94.70;100605.88;5113899;28;20024;-74
2022/12/31 00:57:08;;;;;;;133.93;66.85;;;;;;;0.40;95.53;100620.31;5114343;28;20073;-74
2022/12/31 00:59:33;;;;;;;122.40;62.33;;;;;;;0.64;95.68;100620.31;5113035;28;20097;-74
2022/12/31 01:01:59;;;;;;;117.00;59.10;;;;;;;0.26;96.51;100627.13;5114361;28;20050;-74
2022/12/31 01:04:24;;;;;;;115.40;57.83;;;;;;;0.33;96.84;100630.59;5114251;28;20057;-74
2022/12/31 01:06:50;;;;;;;116.80;56.88;;;;;;;0.53;96.65;100634.91;5110642;28;20238;-74
2022/12/31 01:09:16;;;;;;;107.72;56.55;;;;;;;0.75;95.14;100632.38;5112306;28;20023;-73
2022/12/31 01:11:42;;;;;;;117.18;58.00;;;;;;;0.52;94.26;100622.22;5111545;28;20412;-74
2022/12/31 01:14:13;;;;;;;117.80;54.95;;;;;;;0.90;93.70;100623.63;5112836;28;20026;-74
2022/12/31 01:16:47;;;;;;;114.45;58.47;;;;;;;0.90;93.45;100617.25;5112605;28;20118;-74
2022/12/31 01:19:16;;;;;;;114.53;55.40;;;;;;;0.50;94.29;100627.97;5113065;27;20024;-73
2022/12/31 01:21:43;;;;;;;110.68;55.70;;;;;;;0.75;96.46;100631.56;5113857;28;20019;-74
2022/12/31 01:24:10;;;;;;;102.05;51.22;;;;;;;0.92;94.62;100607.69;5113711;28;20051;-74
2022/12/31 01:26:36;;;;;;;107.22;53.20;;;;;;;1.14;93.86;100606.19;5112963;28;20039;-74
2022/12/31 01:29:03;;;;;;;99.00;48.67;;;;;;;0.99;91.96;100596.53;5113729;28;20027;-74
2022/12/31 01:31:28;;;;;;;94.43;47.92;;;;;;;0.96;93.76;100605.28;5113569;28;20026;-74
2022/12/31 01:33:54;;;;;;;103.65;51.92;;;;;;;1.26;92.04;100605.09;5112588;28;20031;-74
2022/12/31 01:36:23;;;;;;;105.47;51.38;;;;;;;1.39;90.99;100592.09;5111315;28;20023;-74
2022/12/31 01:38:48;;;;;;;102.53;53.10;;;;;;;1.53;90.29;100589.88;5112094;28;20030;-74
2022/12/31 01:41:18;;;;;;;109.20;53.40;;;;;;;1.57;89.26;100604.84;5112605;28;20474;-74
2022/12/31 01:43:57;;;;;;;109.17;56.63;;;;;;;1.60;88.59;100598.81;5113402;28;20118;-74
2022/12/31 01:46:31;;;;;;;115.23;55.50;;;;;;;1.67;87.98;100598.66;5113489;28;20538;-74
2022/12/31 01:49:03;;;;;;;107.63;56.22;;;;;;;1.63;87.51;100587.31;5113323;28;20612;-74
2022/12/31 01:51:32;;;;;;;120.90;57.17;;;;;;;1.61;87.22;100600.50;5111290;28;20414;-74
2022/12/31 01:53:59;;;;;;;110.05;55.97;;;;;;;1.36;87.75;100596.16;5113236;28;20019;-74
2022/12/31 01:56:25;;;;;;;108.85;51.25;;;;;;;1.63;87.17;100611.28;5112339;28;20051;-74
2022/12/31 01:58:54;;;;;;;98.40;53.30;;;;;;;1.31;86.55;100597.97;5113046;28;20020;-74
2022/12/31 02:01:31;;;;;;;95.90;50.17;;;;;;;1.46;87.11;100608.47;5112959;28;20042;-74
2022/12/31 02:04:03;;;;;;;99.57;49.50;;;;;;;0.93;88.13;100605.78;5106172;28;20043;-74
2022/12/31 02:06:52;;;;;;;93.55;49.03;;;;;;;1.03;88.33;100606.00;5095893;28;20027;-73
2022/12/31 02:09:18;;;;;;;90.63;47.60;;;;;;;1.24;88.04;100601.75;5112051;28;20027;-74
2022/12/31 02:11:43;;;;;;;105.95;49.17;;;;;;;1.26;87.59;100598.72;5111905;28;20537;-74
2022/12/31 02:14:23;;;;;;;95.15;47.88;;;;;;;1.40;86.61;100604.78;5111355;28;20031;-74
2022/12/31 02:17:12;;;;;;;95.50;50.20;;;;;;;1.14;86.90;100618.06;5111416;28;20034;-74
2022/12/31 02:20:00;;;;;;;105.55;53.28;;;;;;;1.20;87.13;100619.00;5106228;28;20490;-74
2022/12/31 02:22:46;;;;;;;107.63;57.97;;;;;;;1.26;86.70;100610.59;5105443;28;20066;-74
2022/12/31 02:25:26;;;;;;;112.45;53.92;;;;;;;1.33;86.37;100610.44;5092907;28;20130;-74
2022/12/31 02:28:07;;;;;;;110.45;57.45;;;;;;;1.12;87.07;100611.97;5119929;27;20053;-74
2022/12/31 02:30:33;;;;;;;120.25;58.03;;;;;;;1.25;86.57;100619.94;5112568;28;20024;-74
2022/12/31 02:33:12;;;;;;;112.45;57.85;;;;;;;0.52;88.53;100614.78;5112587;28;20058;-74
2022/12/31 02:35:55;;;;;;;110.35;58.47;;;;;;;0.89;88.69;100616.44;5111614;28;20022;-74
2022/12/31 02:38:29;;;;;;;101.38;55.08;;;;;;;0.94;87.46;100613.78;5111794;28;20466;-74
2022/12/31 02:40:56;;;;;;;112.65;56.75;;;;;;;1.20;87.19;100617.06;5110983;28;20110;-74
2022/12/31 02:43:21;;;;;;;109.78;56.05;;;;;;;1.24;86.17;100615.53;5109714;28;20030;-74
2022/12/31 02:45:55;;;;;;;111.50;59.05;;;;;;;0.59;89.01;100631.19;5110940;28;20019;-74
2022/12/31 02:48:39;;;;;;;101.78;53.42;;;;;;;0.94;88.15;100616.53;5112059;28;20031;-74
2022/12/31 02:51:14;;;;;;;95.65;50.67;;;;;;;1.17;87.07;100612.06;5110889;28;20043;-74
2022/12/31 02:53:57;;;;;;;100.90;52.65;;;;;;;1.13;86.26;100608.13;5111594;28;20102;-74
2022/12/31 02:56:37;;;;;;;101.15;48.20;;;;;;;0.10;91.32;100621.22;5111869;28;20070;-74
2022/12/31 03:02:14;;;;;;;106.10;52.92;;;;;;;-0.04;97.52;100620.63;5112656;28;20598;-74
2022/12/31 03:04:54;;;;;;;99.35;49.40;;;;;;;0.12;95.35;100624.59;5110678;28;20019;-74
2022/12/31 03:07:25;;;;;;;;;;;;;;;0.20;95.41;100631.66;5111500;28;20032;-74
2022/12/31 03:09:51;;;;;;;90.80;47.65;;;;;;;0.12;94.98;100624.59;5112277;28;19912;-74
2022/12/31 03:15:05;;;;;;;102.63;48.63;;;;;;;0.62;93.47;100638.13;5112397;28;20528;-74
2022/12/31 03:17:32;;;;;;;86.80;47.72;;;;;;;0.62;93.57;100641.75;5111992;28;20016;-74
2022/12/31 03:22:42;;;;;;;95.28;49.88;;;;;;;0.32;92.28;100644.59;5110343;28;20038;-74
2022/12/31 03:27:54;;;;;;;100.10;49.65;;;;;;;0.36;92.92;100641.16;5112442;28;20165;-74
2022/12/31 03:30:21;;;;;;;106.63;54.25;;;;;;;0.12;93.94;100643.00;5111875;28;20061;-74
2022/12/31 03:32:48;;;;;;;109.85;54.40;;;;;;;-0.03;94.88;100646.19;5110353;28;20028;-74
2022/12/31 03:35:15;;;;;;;103.57;57.15;;;;;;;-0.09;97.25;100649.91;5111156;28;20023;-74
2022/12/31 03:37:42;;;;;;;111.20;57.40;;;;;;;0.03;97.42;100645.28;5109969;28;20034;-74
2022/12/31 03:40:10;;;;;;;110.57;55.97;;;;;;;-0.05;98.29;100645.59;5111818;28;20024;-74
2022/12/31 03:42:35;;;;;;;108.53;55.83;;;;;;;-0.08;99.11;100646.91;5112075;28;20020;-74
2022/12/31 03:45:01;;;;;;;116.07;58.45;;;;;;;-0.09;100.00;100658.16;5111499;28;20035;-74
2022/12/31 03:47:27;;;;;;;109.95;56.05;;;;;;;-0.02;100.00;100658.88;5110369;28;20037;-74
2022/12/31 03:49:53;;;;;;;108.60;55.60;;;;;;;0.01;100.00;100644.69;5110662;28;20968;-74
2022/12/31 03:52:18;;;;;;;110.65;59.00;;;;;;;0.07;100.00;100651.97;5110603;28;20024;-74
2022/12/31 03:54:44;;;;;;;114.55;57.20;;;;;;;0.15;100.00;100641.72;5111320;28;20044;-74
2022/12/31 03:57:09;;;;;;;103.80;56.95;;;;;;;0.22;100.00;100639.66;5114614;28;20054;-74
2022/12/31 03:59:35;;;;;;;110.65;58.53;;;;;;;0.37;99.74;100642.81;5114857;28;20484;-74
2022/12/31 04:02:00;;;;;;;109.57;59.90;;;;;;;0.26;99.79;100640.88;5113703;28;20020;-74
2022/12/31 04:04:26;;;;;;;114.47;60.35;;;;;;;0.36;99.20;100635.63;5113276;28;20037;-74
2022/12/31 04:06:51;;;;;;;114.03;60.28;;;;;;;0.49;98.41;100629.03;5114948;28;20036;-74
2022/12/31 04:09:17;;;;;;;114.43;57.88;;;;;;;0.62;97.35;100641.75;5113875;28;20031;-74
2022/12/31 04:11:42;;;;;;;114.25;59.58;;;;;;;0.66;96.50;100640.19;5114060;28;20019;-74
2022/12/31 04:14:07;;;;;;;103.18;52.40;;;;;;;0.79;95.97;100646.50;5115273;28;20027;-74
2022/12/31 04:16:33;;;;;;;92.85;49.10;;;;;;;0.84;95.32;100646.63;5113183;28;20027;-74
2022/12/31 04:18:58;;;;;;;87.88;49.10;;;;;;;0.87;94.39;100645.31;5109618;28;20028;-75
2022/12/31 04:21:24;;;;;;;101.78;53.35;;;;;;;0.74;95.05;100643.66;5107878;28;20023;-74
2022/12/31 04:23:49;;;;;;;102.63;52.33;;;;;;;0.63;95.11;100643.41;5115156;28;20047;-74
2022/12/31 04:26:15;;;;;;;95.00;51.95;;;;;;;0.46;95.80;100624.03;5113578;28;20024;-74
2022/12/31 04:28:40;;;;;;;99.75;53.00;;;;;;;0.47;95.82;100624.84;5115172;28;20456;-74
2022/12/31 04:31:06;;;;;;;116.50;57.05;;;;;;;0.56;95.91;100617.91;5114837;28;20023;-74
2022/12/31 04:33:31;;;;;;;102.55;54.30;;;;;;;0.21;97.36;100626.97;5111519;28;20023;-74
2022/12/31 04:36:01;;;;;;;100.63;53.35;;;;;;;0.56;96.80;100634.44;5114134;28;20088;-74
2022/12/31 04:38:28;;;;;;;93.13;49.38;;;;;;;0.80;95.79;100646.28;5115395;28;20015;-75
2022/12/31 04:43:38;;;;;;;102.93;54.47;;;;;;;0.55;96.49;100650.13;5115175;28;20027;-74
2022/12/31 04:46:03;;;;;;;93.53;52.05;;;;;;;0.67;96.42;100652.88;5112466;28;20027;-74
2022/12/31 04:48:29;;;;;;;93.38;49.28;;;;;;;0.68;96.75;100649.03;5111837;28;20027;-74
2022/12/31 04:50:54;;;;;;;89.50;49.10;;;;;;;0.81;96.22;100647.09;5114456;28;20023;-74
2022/12/31 04:53:20;;;;;;;94.03;50.42;;;;;;;0.76;96.01;100644.25;5114299;28;20015;-74
2022/12/31 04:55:45;;;;;;;91.47;47.25;;;;;;;0.75;96.08;100637.06;5114201;28;20486;-74
2022/12/31 04:58:11;;;;;;;92.18;48.35;;;;;;;0.55;96.53;100658.38;5114587;28;20034;-74
2022/12/31 05:00:36;;;;;;;86.40;44.80;;;;;;;0.63;96.17;100656.34;5112958;28;20020;-74
2022/12/31 05:03:02;;;;;;;89.93;44.88;;;;;;;0.78;96.43;100664.94;5110636;28;20068;-74
2022/12/31 05:05:27;;;;;;;92.10;45.53;;;;;;;0.86;96.12;100657.41;5111676;28;20035;-74
2022/12/31 05:07:53;;;;;;;77.68;43.38;;;;;;;1.05;95.07;100653.44;5113725;28;20084;-74
2022/12/31 05:10:18;;;;;;;77.97;43.35;;;;;;;1.22;94.48;100659.03;5112126;28;20039;-74
2022/12/31 05:12:43;;;;;;;73.88;40.50;;;;;;;1.07;93.99;100666.97;5114007;28;20027;-74
2022/12/31 05:15:09;;;;;;;82.30;40.85;;;;;;;0.91;94.55;100663.88;5114177;27;20024;-74
2022/12/31 05:17:34;;;;;;;78.70;43.25;;;;;;;0.91;95.21;100668.56;5111730;28;20027;-74
2022/12/31 05:20:00;;;;;;;88.38;48.45;;;;;;;1.09;94.83;100662.06;5110962;28;20027;-74
2022/12/31 05:22:28;;;;;;;84.13;44.67;;;;;;;1.29;93.96;100680.97;5112597;28;20023;-74
2022/12/31 05:24:54;;;;;;;73.47;40.20;;;;;;;1.37;92.86;100676.97;5112840;28;20110;-74
2022/12/31 05:27:20;;;;;;;76.78;42.92;;;;;;;1.17;93.49;100691.16;5112546;28;20409;-74
2022/12/31 05:29:45;;;;;;;73.07;41.63;;;;;;;1.41;93.80;100691.94;5113945;28;20027;-74
2022/12/31 05:32:11;;;;;;;78.80;44.35;;;;;;;1.44;93.53;100694.19;5112058;28;20028;-75
2022/12/31 05:34:36;;;;;;;79.18;41.17;;;;;;;1.41;92.85;100705.72;5112369;28;20030;-73
2022/12/31 05:37:02;;;;;;;80.43;40.33;;;;;;;1.17;93.34;100696.69;5112754;27;20031;-71
2022/12/31 05:39:27;;;;;;;74.93;40.03;;;;;;;1.15;94.33;100715.34;5112852;28;20102;-76
2022/12/31 05:41:53;;;;;;;71.88;41.78;;;;;;;0.94;95.11;100701.97;5112258;28;20026;-74
2022/12/31 05:44:18;;;;;;;81.93;43.10;;;;;;;1.00;95.72;100688.31;5113769;28;20111;-73
2022/12/31 05:46:45;;;;;;;87.90;46.45;;;;;;;1.21;94.81;100700.63;5113164;28;20084;-72
2022/12/31 05:49:11;;;;;;;71.60;38.78;;;;;;;1.01;96.29;100709.28;5113295;28;20579;-75
2022/12/31 05:51:36;;;;;;;69.15;37.28;;;;;;;1.12;95.60;100716.69;5113537;28;20106;-75
2022/12/31 05:54:02;;;;;;;67.10;36.42;;;;;;;1.40;94.74;100726.13;5113116;28;20035;-77
2022/12/31 05:56:28;;;;;;;63.60;36.60;;;;;;;1.51;93.43;100721.66;5111499;28;20047;-75
2022/12/31 05:58:53;;;;;;;74.72;35.25;;;;;;;1.43;93.62;100719.28;5106747;28;20035;-77
2022/12/31 06:01:19;;;;;;;105.55;56.40;;;;;;;1.49;93.63;100718.28;5099386;28;20035;-74
2022/12/31 06:03:45;;;;;;;86.03;46.95;;;;;;;1.52;93.73;100718.66;5101471;28;20028;-74
2022/12/31 06:06:10;;;;;;;69.30;38.65;;;;;;;1.58;93.04;100727.03;5109622;28;20031;-75
2022/12/31 06:08:36;;;;;;;72.70;35.55;;;;;;;1.58;92.94;100740.84;5108094;28;20188;-75
2022/12/31 06:11:02;;;;;;;61.83;35.95;;;;;;;1.74;93.31;100737.31;5108072;28;20028;-75
2022/12/31 06:13:28;;;;;;;76.43;40.40;;;;;;;1.66;93.21;100721.97;5109133;28;20054;-74
2022/12/31 06:15:53;;;;;;;82.65;43.20;;;;;;;1.84;93.03;100735.84;5095236;28;20812;-75
2022/12/31 06:18:19;;;;;;;87.78;42.90;;;;;;;2.01;92.20;100741.41;5102656;28;20043;-74
2022/12/31 06:20:44;;;;;;;81.00;41.15;;;;;;;2.02;91.32;100734.81;5107982;28;20032;-74
2022/12/31 06:23:10;;;;;;;80.95;43.45;;;;;;;2.10;90.96;100738.00;5110737;28;20111;-75
2022/12/31 06:25:36;;;;;;;100.68;54.92;;;;;;;1.82;91.91;100747.09;5110010;28;20115;-75
2022/12/31 06:28:03;;;;;;;102.40;55.80;;;;;;;2.00;92.41;100746.09;5111795;28;20110;-76
2022/12/31 06:30:29;;;;;;;99.40;48.92;;;;;;;1.98;92.08;100747.41;5110379;28;20527;-76
2022/12/31 06:32:54;;;;;;;98.75;52.70;;;;;;;2.11;91.92;100744.34;5110317;28;20027;-76
2022/12/31 06:35:20;;;;;;;112.93;58.88;;;;;;;2.16;91.63;100746.38;5111072;28;20118;-79
2022/12/31 06:37:46;;;;;;;108.57;52.78;;;;;;;2.17;92.54;100753.56;5109733;28;20414;-75
2022/12/31 06:40:12;;;;;;;122.35;66.30;;;;;;;1.95;92.54;100762.56;5104633;28;20027;-77
2022/12/31 06:42:38;;;;;;;111.32;64.75;;;;;;;1.91;94.14;100747.56;5109236;28;20095;-75
2022/12/31 06:45:04;;;;;;;90.63;49.95;;;;;;;1.28;96.54;100739.94;5097664;28;20028;-79
2022/12/31 06:47:29;;;;;;;98.63;54.17;;;;;;;1.74;96.62;100758.53;5109265;28;20482;-79
2022/12/31 06:49:55;;;;;;;108.28;57.92;;;;;;;1.66;97.82;100768.03;5110904;28;20459;-78
2022/12/31 06:52:21;;;;;;;93.13;51.65;;;;;;;1.51;98.26;100777.66;5109236;28;20023;-73
2022/12/31 06:54:47;;;;;;;93.07;51.80;;;;;;;1.49;99.37;100770.69;5106161;28;20032;-75
2022/12/31 06:57:12;;;;;;;100.25;53.42;;;;;;;1.87;98.84;100773.97;5105145;28;20036;-74
2022/12/31 06:59:38;;;;;;;87.38;47.40;;;;;;;2.05;97.02;100771.03;5109845;28;20024;-73
2022/12/31 07:02:19;;;;;;;86.00;46.13;;;;;;;2.15;96.78;100772.28;5107563;28;20020;-75
2022/12/31 07:05:07;;;;;;;72.88;39.58;;;;;;;2.16;96.64;100773.97;5102797;28;20094;-76
2022/12/31 07:07:47;;;;;;;74.72;42.85;;;;;;;2.31;96.17;100777.03;5097150;28;20020;-72
2022/12/31 07:10:21;;;;;;;74.55;42.35;;;;;;;2.23;96.94;100778.28;5103784;28;20182;-73
2022/12/31 07:13:11;;;;;;;80.85;46.17;;;;;;;2.30;96.48;100783.66;5104033;28;20024;-74
2022/12/31 07:16:01;;;;;;;89.80;45.78;;;;;;;2.21;96.28;100783.19;5099441;28;20027;-76
2022/12/31 07:18:36;;;;;;;123.22;60.72;;;;;;;2.32;96.45;100780.63;5108883;28;20114;-72
2022/12/31 07:21:02;;;;;;;166.35;91.93;;;;;;;2.26;97.15;100781.63;5090397;28;20028;-70
2022/12/31 07:23:28;;;;;;;157.10;89.70;;;;;;;2.60;96.51;100785.28;5089509;28;20023;-72
2022/12/31 07:26:02;;;;;;;232.15;129.18;;;;;;;2.59;95.28;100793.81;5092211;28;20096;-75
2022/12/31 07:29:06;;;;;;;268.73;145.05;;;;;;;2.85;94.83;100797.03;5102407;28;20032;-72
2022/12/31 07:31:54;;;;;;;242.10;131.15;;;;;;;2.83;94.21;100791.75;5047119;28;20037;-72
2022/12/31 07:34:37;;;;;;;229.00;124.40;;;;;;;2.93;93.57;100796.59;5044752;28;20056;-74
2022/12/31 07:37:08;;;;;;;140.63;84.70;;;;;;;2.55;96.38;100796.25;5087987;28;20445;-73
2022/12/31 07:39:58;;;;;;;89.05;52.13;;;;;;;2.76;97.72;100797.44;5106321;28;20087;-73
2022/12/31 07:42:40;;;;;;;93.70;52.83;;;;;;;3.12;95.93;100790.81;5104661;28;20047;-74
2022/12/31 07:45:26;;;;;;;115.82;62.60;;;;;;;3.32;95.10;100801.34;5112358;27;20046;-73
2022/12/31 07:47:51;;;;;;;103.53;54.65;;;;;;;3.32;93.82;100787.53;5110277;28;20119;-72
2022/12/31 07:50:18;;;;;;;142.38;75.65;;;;;;;3.36;95.47;100805.28;5097262;28;20417;-69
2022/12/31 07:52:44;;;;;;;123.43;66.65;;;;;;;3.56;95.08;100812.22;5092083;28;20046;-72
2022/12/31 07:55:10;;;;;;;95.85;51.67;;;;;;;3.73;95.27;100803.88;5099496;28;20063;-74
2022/12/31 07:57:56;;;;;;;84.90;47.50;;;;;;;3.85;94.10;100809.25;5108472;28;20035;-71
2022/12/31 08:00:22;;;;;;;69.93;38.05;;;;;;;4.15;94.23;100810.75;5111637;28;20073;-70
2022/12/31 08:02:56;;;;;;;60.67;34.15;;;;;;;4.31;93.51;100812.59;5100824;28;20101;-70
2022/12/31 08:05:44;;;;;;;57.15;33.47;;;;;;;4.46;91.86;100811.06;5096897;28;20525;-70
2022/12/31 08:08:31;;;;;;;66.13;35.85;;;;;;;4.46;93.14;100803.63;5097434;28;20114;-70
2022/12/31 08:11:05;;;;;;;73.18;36.80;;;;;;;4.73;92.96;100815.78;5098934;28;20167;-76
2022/12/31 08:13:31;;;;;;;70.00;37.75;;;;;;;4.93;91.92;100809.59;5109168;28;20039;-73
2022/12/31 08:15:57;;;;;;;66.97;36.22;;;;;;;4.92;91.77;100819.00;5111196;28;20102;-72
2022/12/31 08:18:23;;;;;;;64.47;35.70;;;;;;;5.05;92.10;100812.16;5105371;28;20114;-70
2022/12/31 08:21:04;;;;;;;64.20;33.95;;;;;;;5.22;90.06;100817.56;5097968;28;20558;-75
2022/12/31 08:24:12;;;;;;;73.65;35.80;;;;;;;5.39;90.80;100822.16;5104118;28;20027;-73
2022/12/31 08:26:47;;;;;;;54.20;30.55;;;;;;;5.54;89.95;100822.25;5097530;28;20031;-70
2022/12/31 08:29:38;;;;;;;53.97;33.30;;;;;;;5.60;89.04;100817.56;5096435;28;20192;-70
2022/12/31 08:32:36;;;;;;;61.75;35.13;;;;;;;6.09;87.61;100821.16;5108305;28;20035;-74
2022/12/31 08:35:29;;;;;;;47.47;29.55;;;;;;;6.16;86.12;100827.31;5098827;28;20050;-74
2022/12/31 08:38:32;;;;;;;50.60;29.48;;;;;;;6.39;85.49;100816.78;5103158;28;20028;-75
2022/12/31 08:41:15;;;;;;;49.47;28.98;;;;;;;6.42;84.43;100817.09;5106363;28;20495;-75
2022/12/31 08:43:57;;;;;;;48.17;28.17;;;;;;;6.81;84.11;100809.38;5110166;28;20494;-74
2022/12/31 08:47:12;;;;;;;54.45;29.13;;;;;;;7.23;81.66;100797.13;5100306;28;20052;-74
2022/12/31 08:49:37;;;;;;;55.05;28.30;;;;;;;7.40;80.86;100799.59;5092328;28;20046;-72
2022/12/31 08:52:11;;;;;;;50.70;29.15;;;;;;;7.59;79.98;100794.28;5104948;27;20024;-74
2022/12/31 08:54:37;;;;;;;52.40;29.80;;;;;;;7.81;78.42;100789.47;5102057;28;20014;-74
2022/12/31 08:57:21;;;;;;;54.13;32.67;;;;;;;8.06;77.69;100794.13;5112183;28;20209;-76
2022/12/31 09:00:07;;;;;;;74.43;40.30;;;;;;;8.22;76.63;100778.16;5109051;28;20027;-75
2022/12/31 09:03:03;;;;;;;69.65;41.30;;;;;;;8.40;74.99;100787.81;5108676;28;20024;-75
2022/12/31 09:05:44;;;;;;;74.95;42.50;;;;;;;8.55;74.63;100786.06;5111339;28;20058;-75
2022/12/31 09:08:25;;;;;;;74.68;43.47;;;;;;;8.64;73.49;100784.34;5111318;28;20043;-75
2022/12/31 09:11:06;;;;;;;59.25;36.15;;;;;;;8.78;73.27;100783.69;5106750;28;20047;-73
2022/12/31 09:14:09;;;;;;;56.88;31.98;;;;;;;8.99;72.78;100779.59;5103914;28;20777;-75
2022/12/31 09:16:58;;;;;;;52.00;27.08;;;;;;;8.90;75.04;100759.03;5107543;28;20080;-75
2022/12/31 09:19:23;;;;;;;45.28;28.58;;;;;;;9.07;72.76;100768.91;5106367;28;20059;-75
2022/12/31 09:21:49;;;;;;;52.90;30.05;;;;;;;9.27;71.71;100768.72;5108055;27;20026;-75
2022/12/31 09:24:15;;;;;;;55.13;32.40;;;;;;;9.37;69.70;100765.00;5111100;28;20055;-75
2022/12/31 09:26:40;;;;;;;52.63;30.92;;;;;;;9.42;69.13;100755.72;5102860;28;20084;-74
2022/12/31 09:29:33;;;;;;;47.83;32.28;;;;;;;9.59;69.02;100749.69;5108904;28;20111;-74
2022/12/31 09:32:11;;;;;;;44.45;27.80;;;;;;;9.81;67.88;100739.94;5107346;28;20062;-74
2022/12/31 09:34:45;;;;;;;42.80;26.83;;;;;;;9.85;69.37;100748.56;5105003;28;20019;-74
2022/12/31 09:37:20;;;;;;;44.88;27.92;;;;;;;9.83;69.20;100744.09;5106837;28;20054;-74
2022/12/31 09:39:47;;;;;;;40.13;25.33;;;;;;;10.04;68.61;100737.41;5105781;28;20039;-75
2022/12/31 09:42:43;;;;;;;49.53;27.08;;;;;;;10.31;66.98;100733.91;5109072;27;20038;-75
2022/12/31 09:45:35;;;;;;;44.30;26.58;;;;;;;10.44;66.91;100734.31;5093660;28;20031;-75
2022/12/31 09:48:03;;;;;;;56.40;32.10;;;;;;;10.57;66.62;100725.19;5110611;28;20019;-76
2022/12/31 09:50:41;;;;;;;52.10;26.77;;;;;;;10.65;66.17;100730.06;5109639;28;20023;-75
2022/12/31 09:53:15;;;;;;;38.47;25.10;;;;;;;10.73;66.21;100725.75;5106833;28;20405;-75
2022/12/31 09:56:03;;;;;;;48.08;25.23;;;;;;;10.78;67.25;100720.06;5107298;28;20046;-75
2022/12/31 09:58:54;;;;;;;99.20;32.95;;;;;;;10.78;67.16;100703.28;5107903;28;20157;-74
2022/12/31 10:01:41;;;;;;;53.80;30.25;;;;;;;10.89;66.42;100712.31;5108671;28;20088;-75
2022/12/31 10:04:42;;;;;;;175.00;45.95;;;;;;;10.94;67.23;100701.03;5108444;28;20418;-75
2022/12/31 10:07:19;;;;;;;61.55;36.38;;;;;;;11.13;66.81;100702.13;5027976;28;20620;-79
2022/12/31 10:09:54;;;;;;;63.17;37.50;;;;;;;11.16;65.32;100698.69;5100288;27;20043;-75
2022/12/31 10:12:38;;;;;;;58.78;37.70;;;;;;;11.16;65.93;100698.69;5110133;28;20020;-76
2022/12/31 10:15:22;;;;;;;62.40;38.10;;;;;;;11.40;65.05;100695.69;5109077;28;20038;-76
2022/12/31 10:17:56;;;;;;;60.97;38.67;;;;;;;11.66;64.29;100681.19;5108376;28;20477;-78
2022/12/31 10:20:43;;;;;;;63.78;42.08;;;;;;;11.70;64.92;100675.75;5110976;28;20111;-75
2022/12/31 10:23:42;;;;;;;66.05;42.40;;;;;;;11.73;64.58;100675.16;5111899;28;20043;-74
2022/12/31 10:26:21;;;;;;;73.90;42.03;;;;;;;11.85;63.66;100677.41;5111143;27;20084;-73
2022/12/31 10:29:25;;;;;;;72.85;43.97;;;;;;;11.77;64.24;100667.75;5106628;28;20479;-73
2022/12/31 10:32:09;;;;;;;67.35;41.83;;;;;;;11.91;63.06;100664.94;5123084;27;20129;-74
2022/12/31 10:35:11;;;;;;;65.28;39.42;;;;;;;11.84;63.75;100656.13;5090304;28;20051;-78
2022/12/31 10:37:50;;;;;;;63.05;35.67;;;;;;;11.92;62.81;100656.19;5101953;28;20027;-78
2022/12/31 10:40:42;;;;;;;60.88;37.70;;;;;;;11.98;62.41;100656.09;5110829;28;20023;-78
2022/12/31 10:43:51;;;;;;;61.50;35.53;;;;;;;11.97;62.40;100658.06;5108514;28;20105;-78
2022/12/31 10:46:45;;;;;;;62.50;34.70;;;;;;;12.19;62.65;100654.50;5107245;28;20024;-78
2022/12/31 10:49:29;;;;;;;58.78;33.17;;;;;;;12.27;62.10;100649.28;5106742;28;20425;-78
2022/12/31 10:52:22;;;;;;;55.08;32.95;;;;;;;12.40;62.84;100645.56;5104992;28;20047;-79
2022/12/31 10:55:04;;;;;;;51.67;30.55;;;;;;;12.27;62.23;100638.91;5105556;28;20501;-75
2022/12/31 10:57:38;;;;;;;54.85;32.60;;;;;;;12.50;62.17;100638.91;5100489;28;20089;-78
2022/12/31 11:00:11;;;;;;;50.22;29.33;;;;;;;12.63;61.07;100634.34;5092160;28;20024;-76
2022/12/31 11:02:39;;;;;;;46.65;29.08;;;;;;;12.75;59.24;100636.56;5109778;28;20023;-78
2022/12/31 11:05:23;;;;;;;50.45;30.90;;;;;;;12.69;59.88;100635.88;5109094;28;20027;-74
2022/12/31 11:08:00;;;;;;;51.08;29.75;;;;;;;12.78;59.61;100625.50;5105174;28;20044;-75
2022/12/31 11:10:44;;;;;;;46.58;27.92;;;;;;;12.99;59.07;100619.34;5095302;28;20075;-76
2022/12/31 11:13:40;;;;;;;49.67;28.05;;;;;;;13.28;57.36;100614.34;5102834;28;20517;-71
2022/12/31 11:16:24;;;;;;;48.95;28.92;;;;;;;13.35;56.68;100614.69;5106631;28;20027;-71
2022/12/31 11:19:11;;;;;;;39.28;26.40;;;;;;;13.50;57.87;100605.00;5105623;28;20039;-74
2022/12/31 11:21:59;;;;;;;40.45;24.42;;;;;;;13.33;57.66;100606.59;5106744;28;20759;-75
2022/12/31 11:24:41;;;;;;;35.72;23.60;;;;;;;13.36;57.94;100582.63;5088185;28;20463;-72
2022/12/31 11:27:45;;;;;;;40.28;25.40;;;;;;;13.61;57.56;100599.91;5102116;28;20038;-72
2022/12/31 11:30:44;;;;;;;46.42;26.38;;;;;;;13.68;56.99;100590.97;5106748;28;20034;-77
2022/12/31 11:33:31;;;;;;;38.53;23.00;;;;;;;13.85;57.09;100590.16;5094667;28;20074;-75
2022/12/31 11:36:39;;;;;;;37.25;23.38;;;;;;;13.59;57.63;100588.97;5094433;28;20080;-76
2022/12/31 11:39:42;;;;;;;43.25;24.08;;;;;;;13.55;58.36;100582.38;5096372;28;20040;-76
2022/12/31 11:42:19;;;;;;;36.85;21.63;;;;;;;13.64;57.27;100584.38;5041539;28;20059;-76
2022/12/31 11:44:57;;;;;;;34.63;23.27;;;;;;;13.59;57.80;100586.16;5099753;28;20488;-75
2022/12/31 11:47:47;;;;;;;33.35;22.88;;;;;;;13.86;56.92;100589.00;5102717;28;20027;-75
2022/12/31 11:50:31;;;;;;;33.35;22.23;;;;;;;13.84;55.77;100589.34;5106757;28;20027;-75
2022/12/31 11:53:29;;;;;;;34.47;20.95;;;;;;;13.94;56.25;100587.34;5107766;28;20044;-75
2022/12/31 11:56:01;;;;;;;34.75;22.20;;;;;;;13.90;57.03;100593.66;5107964;28;20058;-75